createdAt,value
2018-04-22T00:00:03.642Z,48.47
2018-04-22T00:02:32.314Z,48.73
2018-04-22T00:05:00.766Z,48.72
2018-04-22T00:07:29.188Z,49.23
2018-04-22T00:09:57.730Z,49.07
2018-04-22T00:12:26.100Z,51.23
2018-04-22T00:14:54.978Z,52.31
2018-04-22T00:17:23.511Z,50.04
2018-04-22T00:19:52.319Z,50.92
2018-04-22T00:22:20.475Z,52.93
2018-04-22T00:24:49.054Z,50.77
2018-04-22T00:27:17.600Z,50.18
2018-04-22T00:29:46.265Z,50.15
2018-04-22T00:32:14.827Z,50.46
2018-04-22T00:34:43.482Z,50.13
2018-04-22T00:37:11.884Z,50.35
2018-04-22T00:39:40.346Z,50.03
2018-04-22T00:42:08.727Z,50.79
2018-04-22T00:44:37.164Z,50.30
2018-04-22T00:47:05.957Z,50.27
2018-04-22T00:49:34.570Z,50.87
2018-04-22T00:52:03.259Z,50.43
2018-04-22T00:54:31.704Z,50.67
2018-04-22T00:57:00.009Z,50.88
2018-04-22T00:59:28.565Z,51.43
2018-04-22T01:01:56.881Z,50.78
2018-04-22T01:04:25.659Z,50.79
2018-04-22T01:06:54.138Z,50.50
2018-04-22T01:09:22.547Z,52.05
2018-04-22T01:11:51.108Z,55.44
2018-04-22T01:14:19.787Z,54.61
2018-04-22T01:16:48.236Z,56.51
2018-04-22T01:19:16.541Z,58.33
2018-04-22T01:21:45.218Z,55.26
2018-04-22T01:24:13.657Z,54.14
2018-04-22T01:26:42.014Z,53.67
2018-04-22T01:29:10.873Z,53.47
2018-04-22T01:31:39.453Z,54.32
2018-04-22T01:34:07.962Z,53.07
2018-04-22T01:36:36.641Z,52.77
2018-04-22T01:39:05.012Z,53.07
2018-04-22T01:41:33.305Z,52.59
2018-04-22T01:44:01.748Z,52.51
2018-04-22T01:46:30.107Z,52.42
2018-04-22T01:48:58.315Z,55.17
2018-04-22T01:51:26.762Z,54.19
2018-04-22T01:53:55.101Z,53.86
2018-04-22T01:56:23.540Z,52.90
2018-04-22T01:58:51.954Z,53.23
2018-04-22T02:01:20.518Z,52.20
2018-04-22T02:03:48.848Z,51.41
2018-04-22T02:06:17.292Z,51.90
2018-04-22T02:08:45.856Z,52.40
2018-04-22T02:11:14.427Z,51.71
2018-04-22T02:13:43.065Z,51.34
2018-04-22T02:16:11.601Z,52.76
2018-04-22T02:18:40.175Z,52.52
2018-04-22T02:21:08.571Z,52.78
2018-04-22T02:23:37.154Z,52.62
2018-04-22T02:26:05.929Z,52.89
2018-04-22T02:28:34.410Z,52.64
2018-04-22T02:31:02.689Z,52.47
2018-04-22T02:33:30.955Z,57.22
2018-04-22T02:35:59.915Z,58.74
2018-04-22T02:38:28.435Z,57.60
2018-04-22T02:40:57.022Z,58.67
2018-04-22T02:43:25.493Z,59.75
2018-04-22T02:45:53.863Z,58.96
2018-04-22T02:48:22.564Z,58.77
2018-04-22T02:50:51.347Z,56.90
2018-04-22T02:53:19.628Z,56.14
2018-04-22T02:55:48.029Z,55.38
2018-04-22T02:58:16.577Z,55.54
2018-04-22T03:00:44.970Z,55.25
2018-04-22T03:03:13.439Z,55.02
2018-04-22T03:05:42.324Z,55.05
2018-04-22T03:08:10.802Z,54.69
2018-04-22T03:10:39.293Z,55.22
2018-04-22T03:13:07.686Z,54.62
2018-04-22T03:15:36.653Z,54.30
2018-04-22T03:18:04.863Z,54.16
2018-04-22T03:20:33.003Z,54.67
2018-04-22T03:23:01.394Z,54.51
2018-04-22T03:25:29.779Z,54.61
2018-04-22T03:27:58.066Z,54.63
2018-04-22T03:30:26.417Z,54.31
2018-04-22T03:32:54.905Z,54.54
2018-04-22T03:35:23.507Z,54.36
2018-04-22T03:37:51.986Z,53.91
2018-04-22T03:40:20.540Z,54.24
2018-04-22T03:42:48.662Z,54.23
2018-04-22T03:45:17.194Z,53.97
2018-04-22T03:47:45.773Z,54.20
2018-04-22T03:50:14.086Z,57.59
2018-04-22T03:52:42.738Z,60.09
2018-04-22T03:55:11.219Z,59.72
2018-04-22T03:57:39.723Z,60.59
2018-04-22T04:00:08.295Z,60.08
2018-04-22T04:02:36.523Z,57.94
2018-04-22T04:05:04.854Z,56.61
2018-04-22T04:07:33.409Z,56.39
2018-04-22T04:10:01.658Z,57.17
2018-04-22T04:12:30.293Z,57.54
2018-04-22T04:14:58.619Z,57.21
2018-04-22T04:17:27.345Z,56.31
2018-04-22T04:20:07.536Z,56.43
2018-04-22T04:22:46.105Z,55.04
2018-04-22T04:28:28.963Z,53.05
2018-04-22T04:30:57.317Z,53.58
2018-04-22T04:33:25.818Z,56.37
2018-04-22T04:35:54.187Z,55.09
2018-04-22T04:38:22.357Z,53.22
2018-04-22T04:40:50.736Z,53.41
2018-04-22T04:43:19.319Z,52.37
2018-04-22T04:45:47.716Z,51.80
2018-04-22T04:48:15.960Z,50.83
2018-04-22T04:50:44.554Z,50.49
2018-04-22T04:53:12.955Z,50.27
2018-04-22T04:55:41.409Z,49.98
2018-04-22T04:58:09.717Z,49.60
2018-04-22T05:00:37.972Z,50.03
2018-04-22T05:03:06.243Z,51.35
2018-04-22T05:05:34.715Z,53.18
2018-04-22T05:08:03.058Z,54.13
2018-04-22T05:10:31.286Z,54.43
2018-04-22T05:13:00.049Z,53.58
2018-04-22T05:15:28.514Z,52.78
2018-04-22T05:17:57.015Z,53.94
2018-04-22T05:20:25.461Z,54.42
2018-04-22T05:22:53.690Z,53.98
2018-04-22T05:25:21.973Z,53.66
2018-04-22T05:27:50.386Z,53.87
2018-04-22T05:30:18.885Z,54.45
2018-04-22T05:32:47.189Z,54.61
2018-04-22T05:35:15.553Z,55.08
2018-04-22T05:37:44.054Z,54.88
2018-04-22T05:40:12.212Z,54.67
2018-04-22T05:42:41.144Z,54.33
2018-04-22T05:45:09.446Z,54.53
2018-04-22T05:47:37.988Z,52.67
2018-04-22T05:50:06.847Z,53.42
2018-04-22T05:52:35.529Z,53.46
2018-04-22T05:55:03.878Z,52.39
2018-04-22T05:57:32.390Z,52.96
2018-04-22T06:00:00.808Z,53.93
2018-04-22T06:02:29.249Z,54.09
2018-04-22T06:04:57.569Z,54.93
2018-04-22T06:07:26.283Z,52.62
2018-04-22T06:09:54.805Z,52.71
2018-04-22T06:12:23.390Z,53.47
2018-04-22T06:14:51.768Z,49.76
2018-04-22T06:17:20.384Z,50.24
2018-04-22T06:19:49.446Z,49.39
2018-04-22T06:22:18.014Z,48.66
2018-04-22T06:24:46.554Z,48.36
2018-04-22T06:27:14.774Z,45.87
2018-04-22T06:29:43.326Z,44.72
2018-04-22T06:32:11.651Z,42.96
2018-04-22T06:34:40.312Z,42.98
2018-04-22T06:37:08.626Z,41.09
2018-04-22T06:39:37.193Z,39.09
2018-04-22T06:42:05.595Z,39.89
2018-04-22T06:44:33.741Z,40.31
2018-04-22T06:47:02.422Z,40.58
2018-04-22T06:49:30.697Z,40.03
2018-04-22T06:51:58.952Z,37.47
2018-04-22T06:54:27.351Z,37.42
2018-04-22T06:56:55.712Z,36.38
2018-04-22T06:59:24.402Z,35.11
2018-04-22T07:01:52.797Z,33.15
2018-04-22T07:04:21.242Z,34.25
2018-04-22T07:06:49.658Z,33.55
2018-04-22T07:09:18.002Z,33.79
2018-04-22T07:11:46.417Z,33.42
2018-04-22T07:14:15.116Z,32.15
2018-04-22T07:16:43.461Z,28.97
2018-04-22T07:19:11.759Z,27.66
2018-04-22T07:21:40.420Z,28.29
2018-04-22T07:24:09.554Z,29.83
2018-04-22T07:26:39.026Z,29.10
2018-04-22T07:29:07.404Z,28.99
2018-04-22T07:31:35.968Z,26.10
2018-04-22T07:34:04.241Z,26.31
2018-04-22T07:36:32.947Z,28.98
2018-04-22T07:39:01.310Z,25.91
2018-04-22T07:41:29.809Z,26.10
2018-04-22T07:43:58.276Z,26.38
2018-04-22T07:46:26.389Z,26.23
2018-04-22T07:48:54.830Z,26.29
2018-04-22T07:51:22.852Z,26.29
2018-04-22T07:53:50.882Z,25.26
2018-04-22T07:56:18.912Z,25.10
2018-04-22T07:58:47.077Z,25.04
2018-04-22T08:01:15.108Z,25.58
2018-04-22T08:03:43.224Z,22.95
2018-04-22T08:06:11.631Z,22.50
2018-04-22T08:08:40.235Z,22.40
2018-04-22T08:11:08.274Z,25.08
2018-04-22T08:13:36.279Z,24.83
2018-04-22T08:16:04.203Z,25.46
2018-04-22T08:18:32.138Z,24.14
2018-04-22T08:21:00.166Z,25.39
2018-04-22T08:23:28.538Z,23.82
2018-04-22T08:25:56.838Z,23.14
2018-04-22T08:28:24.860Z,23.78
2018-04-22T08:30:53.387Z,21.72
2018-04-22T08:33:21.982Z,22.15
2018-04-22T08:35:50.288Z,21.69
2018-04-22T08:38:18.697Z,20.10
2018-04-22T08:40:47.336Z,21.28
2018-04-22T08:43:15.574Z,20.26
2018-04-22T08:45:44.143Z,18.72
2018-04-22T08:48:12.433Z,17.19
2018-04-22T08:50:40.801Z,17.70
2018-04-22T08:53:09.379Z,19.41
2018-04-22T08:55:37.767Z,20.09
2018-04-22T08:58:06.229Z,18.40
2018-04-22T09:00:34.297Z,19.17
2018-04-22T09:03:02.274Z,20.49
2018-04-22T09:05:30.582Z,20.46
2018-04-22T09:07:58.943Z,18.71
2018-04-22T09:10:27.429Z,18.67
2018-04-22T09:12:55.964Z,17.91
2018-04-22T09:15:24.301Z,16.32
2018-04-22T09:17:52.747Z,16.37
2018-04-22T09:20:20.963Z,16.34
2018-04-22T09:22:49.513Z,17.48
2018-04-22T09:25:18.090Z,16.33
2018-04-22T09:27:46.514Z,15.19
2018-04-22T09:30:15.040Z,15.23
2018-04-22T09:32:43.639Z,15.18
2018-04-22T09:35:11.917Z,16.02
2018-04-22T09:37:40.588Z,15.69
2018-04-22T09:40:09.038Z,16.91
2018-04-22T09:42:37.176Z,15.92
2018-04-22T09:45:05.725Z,16.51
2018-04-22T09:47:33.977Z,16.18
2018-04-22T09:50:02.383Z,16.75
2018-04-22T09:52:30.506Z,17.06
2018-04-22T09:54:58.927Z,15.86
2018-04-22T09:57:27.312Z,15.58
2018-04-22T09:59:55.790Z,16.56
2018-04-22T10:02:29.435Z,16.42
2018-04-22T10:04:57.968Z,15.89
2018-04-22T10:07:26.363Z,16.04
2018-04-22T10:09:55.019Z,15.73
2018-04-22T10:12:23.615Z,15.64
2018-04-22T10:14:51.887Z,16.41
2018-04-22T10:17:20.688Z,17.02
2018-04-22T10:19:49.124Z,18.98
2018-04-22T10:22:17.349Z,16.60
2018-04-22T10:24:45.701Z,16.21
2018-04-22T10:27:14.309Z,16.73
2018-04-22T10:29:42.890Z,15.42
2018-04-22T10:32:11.457Z,15.30
2018-04-22T10:34:39.982Z,15.94
2018-04-22T10:37:08.622Z,15.53
2018-04-22T10:39:37.002Z,14.82
2018-04-22T10:42:05.399Z,15.46
2018-04-22T10:44:33.857Z,15.80
2018-04-22T10:47:02.247Z,16.79
2018-04-22T10:49:30.828Z,14.79
2018-04-22T10:51:59.204Z,15.49
2018-04-22T10:54:27.594Z,15.81
2018-04-22T10:56:56.152Z,14.76
2018-04-22T10:59:24.433Z,15.40
2018-04-22T11:01:52.918Z,14.12
2018-04-22T11:04:21.496Z,14.42
2018-04-22T11:06:49.667Z,15.34
2018-04-22T11:09:17.841Z,15.05
2018-04-22T11:11:46.288Z,14.47
2018-04-22T11:14:14.811Z,14.96
2018-04-22T11:16:43.618Z,13.03
2018-04-22T11:19:12.285Z,13.71
2018-04-22T11:21:40.755Z,15.30
2018-04-22T11:24:09.541Z,13.97
2018-04-22T11:26:37.806Z,13.72
2018-04-22T11:29:06.523Z,12.64
2018-04-22T11:31:34.793Z,13.45
2018-04-22T11:34:02.977Z,14.99
2018-04-22T11:36:31.503Z,14.08
2018-04-22T11:38:59.555Z,13.11
2018-04-22T11:41:27.598Z,13.62
2018-04-22T11:43:55.557Z,11.76
2018-04-22T11:46:23.583Z,13.90
2018-04-22T11:48:51.955Z,13.55
2018-04-22T11:51:20.262Z,13.06
2018-04-22T11:53:49.054Z,12.83
2018-04-22T11:56:17.252Z,12.45
2018-04-22T11:58:45.818Z,13.15
2018-04-22T12:01:14.502Z,13.06
2018-04-22T12:03:42.945Z,12.78
2018-04-22T12:06:11.374Z,12.73
2018-04-22T12:08:39.730Z,11.84
2018-04-22T12:11:08.242Z,11.20
2018-04-22T12:13:36.704Z,11.83
2018-04-22T12:16:05.236Z,12.29
2018-04-22T12:18:33.666Z,12.43
2018-04-22T12:21:02.144Z,11.47
2018-04-22T12:23:30.345Z,12.05
2018-04-22T12:25:58.801Z,11.94
2018-04-22T12:28:27.157Z,11.43
2018-04-22T12:30:55.665Z,12.25
2018-04-22T12:33:24.106Z,11.46
2018-04-22T12:35:52.403Z,12.38
2018-04-22T12:38:20.781Z,13.81
2018-04-22T12:40:49.090Z,14.38
2018-04-22T12:43:17.644Z,14.50
2018-04-22T12:45:45.993Z,14.48
2018-04-22T12:48:14.619Z,13.46
2018-04-22T12:50:43.178Z,12.39
2018-04-22T12:53:11.664Z,12.93
2018-04-22T12:55:40.054Z,13.74
2018-04-22T12:58:08.315Z,13.84
2018-04-22T13:00:36.501Z,13.62
2018-04-22T13:03:04.614Z,12.84
2018-04-22T13:05:32.650Z,13.09
2018-04-22T13:08:00.607Z,12.55
2018-04-22T13:10:28.651Z,13.21
2018-04-22T13:12:56.638Z,13.05
2018-04-22T13:15:24.651Z,13.97
2018-04-22T13:17:52.638Z,12.66
2018-04-22T13:20:20.682Z,12.76
2018-04-22T13:22:48.713Z,13.74
2018-04-22T13:25:16.771Z,13.27
2018-04-22T13:27:44.833Z,13.12
2018-04-22T13:30:12.831Z,13.18
2018-04-22T13:32:41.114Z,12.96
2018-04-22T13:35:09.298Z,13.48
2018-04-22T13:37:37.354Z,14.00
2018-04-22T13:40:05.464Z,13.89
2018-04-22T13:42:33.539Z,14.12
2018-04-22T13:45:01.636Z,14.15
2018-04-22T13:47:29.685Z,13.51
2018-04-22T13:49:57.704Z,11.39
2018-04-22T13:52:25.655Z,11.47
2018-04-22T13:54:53.630Z,11.11
2018-04-22T13:57:21.663Z,10.24
2018-04-22T13:59:49.667Z,10.72
2018-04-22T14:02:17.637Z,11.36
2018-04-22T14:04:45.668Z,11.58
2018-04-22T14:07:13.685Z,11.65
2018-04-22T14:09:41.711Z,10.77
2018-04-22T14:12:09.840Z,11.04
2018-04-22T14:14:37.853Z,11.39
2018-04-22T14:17:06.001Z,12.03
2018-04-22T14:19:33.998Z,11.86
2018-04-22T14:22:02.007Z,13.31
2018-04-22T14:24:29.975Z,12.23
2018-04-22T14:26:58.022Z,12.18
2018-04-22T14:29:26.031Z,12.21
2018-04-22T14:31:54.045Z,12.44
2018-04-22T14:34:22.274Z,12.53
2018-04-22T14:36:50.293Z,13.14
2018-04-22T14:39:18.317Z,13.31
2018-04-22T14:41:46.297Z,13.80
2018-04-22T14:44:26.378Z,13.90
2018-04-22T14:46:54.806Z,14.39
2018-04-22T14:49:23.176Z,14.04
2018-04-22T14:51:52.809Z,14.81
2018-04-22T14:54:21.355Z,15.02
2018-04-22T14:56:49.802Z,14.89
2018-04-22T14:59:18.301Z,15.15
2018-04-22T15:01:46.635Z,15.19
2018-04-22T15:04:15.181Z,16.36
2018-04-22T15:06:43.549Z,16.20
2018-04-22T15:09:11.723Z,16.51
2018-04-22T15:11:40.328Z,16.40
2018-04-22T15:14:08.705Z,17.10
2018-04-22T15:16:36.961Z,17.75
2018-04-22T15:19:05.020Z,19.28
2018-04-22T15:21:33.023Z,17.87
2018-04-22T15:24:01.383Z,18.18
2018-04-22T15:26:29.590Z,18.29
2018-04-22T15:28:58.052Z,18.42
2018-04-22T15:31:26.617Z,18.34
2018-04-22T15:33:55.015Z,19.10
2018-04-22T15:36:23.907Z,18.51
2018-04-22T15:38:52.361Z,19.31
2018-04-22T15:41:21.014Z,19.68
2018-04-22T15:43:49.723Z,20.53
2018-04-22T15:46:18.109Z,20.12
2018-04-22T15:48:46.694Z,19.83
2018-04-22T15:51:14.995Z,19.96
2018-04-22T15:53:43.455Z,19.70
2018-04-22T15:56:11.698Z,20.16
2018-04-22T15:58:40.122Z,20.29
2018-04-22T16:01:08.582Z,20.46
2018-04-22T16:03:36.978Z,20.23
2018-04-22T16:06:05.541Z,20.51
2018-04-22T16:08:33.841Z,20.55
2018-04-22T16:11:02.209Z,21.89
2018-04-22T16:13:30.481Z,22.54
2018-04-22T16:15:58.850Z,20.89
2018-04-22T16:18:27.441Z,20.75
2018-04-22T16:20:55.731Z,21.00
2018-04-22T16:23:24.303Z,22.73
2018-04-22T16:25:52.577Z,22.50
2018-04-22T16:28:21.039Z,22.70
2018-04-22T16:30:49.551Z,22.93
2018-04-22T16:33:18.270Z,23.79
2018-04-22T16:35:47.002Z,23.57
2018-04-22T16:38:15.761Z,23.66
2018-04-22T16:40:44.078Z,23.59
2018-04-22T16:43:12.263Z,24.11
2018-04-22T16:45:40.426Z,25.68
2018-04-22T16:48:08.679Z,25.84
2018-04-22T16:50:37.153Z,26.49
2018-04-22T16:53:05.445Z,28.65
2018-04-22T16:55:33.833Z,28.53
2018-04-22T16:58:02.181Z,28.14
2018-04-22T17:00:30.604Z,28.34
2018-04-22T17:02:58.984Z,27.97
2018-04-22T17:05:27.752Z,28.52
2018-04-22T17:07:56.184Z,28.08
2018-04-22T17:10:24.822Z,28.98
2018-04-22T17:12:53.281Z,28.59
2018-04-22T17:15:21.731Z,28.69
2018-04-22T17:17:50.276Z,29.25
2018-04-22T17:20:18.820Z,29.37
2018-04-22T17:22:47.376Z,29.33
2018-04-22T17:25:15.811Z,29.59
2018-04-22T17:27:44.271Z,30.01
2018-04-22T17:30:12.818Z,30.58
2018-04-22T17:32:41.011Z,31.13
2018-04-22T17:35:09.815Z,30.83
2018-04-22T17:37:38.028Z,30.97
2018-04-22T17:40:06.601Z,31.04
2018-04-22T17:42:35.156Z,30.63
2018-04-22T17:45:03.486Z,32.18
2018-04-22T17:47:31.901Z,31.06
2018-04-22T17:50:00.254Z,31.21
2018-04-22T17:52:28.679Z,32.24
2018-04-22T17:54:56.938Z,32.68
2018-04-22T17:57:25.334Z,32.26
2018-04-22T17:59:53.590Z,32.73
2018-04-22T18:02:22.072Z,33.59
2018-04-22T18:04:50.554Z,32.93
2018-04-22T18:07:19.000Z,33.42
2018-04-22T18:09:47.378Z,34.89
2018-04-22T18:12:15.791Z,34.92
2018-04-22T18:14:44.081Z,35.58
2018-04-22T18:17:12.442Z,34.47
2018-04-22T18:19:41.092Z,35.06
2018-04-22T18:22:09.505Z,36.20
2018-04-22T18:24:37.818Z,35.07
2018-04-22T18:27:06.474Z,35.11
2018-04-22T18:29:35.204Z,34.69
2018-04-22T18:32:03.634Z,34.64
2018-04-22T18:34:31.864Z,35.10
2018-04-22T18:37:00.390Z,35.54
2018-04-22T18:39:28.588Z,35.67
2018-04-22T18:41:57.031Z,34.93
2018-04-22T18:44:25.388Z,34.76
2018-04-22T18:46:53.798Z,35.16
2018-04-22T18:49:22.002Z,34.40
2018-04-22T18:51:50.344Z,34.50
2018-04-22T18:54:18.825Z,35.20
2018-04-22T18:56:47.127Z,35.68
2018-04-22T18:59:15.482Z,35.55
2018-04-22T19:01:43.773Z,35.05
2018-04-22T19:04:12.137Z,35.03
2018-04-22T19:06:40.482Z,35.81
2018-04-22T19:09:08.907Z,34.59
2018-04-22T19:11:37.469Z,34.31
2018-04-22T19:14:05.875Z,35.31
2018-04-22T19:16:34.236Z,34.92
2018-04-22T19:19:02.541Z,34.27
2018-04-22T19:21:30.887Z,34.66
2018-04-22T19:23:59.476Z,35.02
2018-04-22T19:26:27.769Z,35.75
2018-04-22T19:28:56.129Z,35.34
2018-04-22T19:31:24.539Z,36.20
2018-04-22T19:33:52.977Z,39.74
2018-04-22T19:36:21.338Z,36.34
2018-04-22T19:38:49.849Z,37.27
2018-04-22T19:41:18.217Z,36.57
2018-04-22T19:43:46.705Z,37.27
2018-04-22T19:46:15.212Z,36.73
2018-04-22T19:48:43.927Z,36.49
2018-04-22T19:51:12.265Z,36.40
2018-04-22T19:53:40.817Z,37.17
2018-04-22T19:56:09.133Z,36.77
2018-04-22T19:58:37.574Z,37.69
2018-04-22T20:01:05.782Z,37.83
2018-04-22T20:03:34.253Z,38.62
2018-04-22T20:06:02.748Z,38.39
2018-04-22T20:08:31.302Z,39.38
2018-04-22T20:10:59.849Z,37.97
2018-04-22T20:13:28.476Z,37.92
2018-04-22T20:15:56.845Z,38.70
2018-04-22T20:18:25.317Z,44.17
2018-04-22T20:20:53.526Z,39.72
2018-04-22T20:23:22.073Z,39.78
2018-04-22T20:25:50.543Z,40.36
2018-04-22T20:28:18.845Z,39.60
2018-04-22T20:30:47.099Z,40.00
2018-04-22T20:33:15.294Z,38.82
2018-04-22T20:35:43.548Z,39.30
2018-04-22T20:38:11.950Z,40.02
2018-04-22T20:40:40.513Z,39.71
2018-04-22T20:43:08.759Z,39.81
2018-04-22T20:45:37.490Z,39.71
2018-04-22T20:48:05.746Z,38.17
2018-04-22T20:50:34.143Z,37.57
2018-04-22T20:53:02.733Z,38.57
2018-04-22T20:55:31.195Z,38.65
2018-04-22T20:57:59.741Z,38.19
2018-04-22T21:00:28.149Z,37.68
2018-04-22T21:02:56.448Z,37.50
2018-04-22T21:05:24.606Z,38.62
2018-04-22T21:07:52.896Z,38.54
2018-04-22T21:10:21.355Z,38.50
2018-04-22T21:12:49.937Z,37.87
2018-04-22T21:15:18.537Z,38.07
2018-04-22T21:17:47.001Z,38.05
2018-04-22T21:20:16.219Z,38.34
2018-04-22T21:22:44.667Z,38.42
2018-04-22T21:25:12.988Z,38.72
2018-04-22T21:27:41.642Z,38.39
2018-04-22T21:30:10.013Z,38.32
2018-04-22T21:32:38.314Z,39.56
2018-04-22T21:35:06.698Z,40.79
2018-04-22T21:37:34.957Z,39.20
2018-04-22T21:40:03.221Z,39.16
2018-04-22T21:42:31.555Z,38.91
2018-04-22T21:44:59.983Z,38.63
2018-04-22T21:47:28.671Z,39.95
2018-04-22T21:49:57.212Z,39.55
2018-04-22T21:52:25.638Z,39.27
2018-04-22T21:54:54.005Z,39.72
2018-04-22T21:57:22.346Z,39.76
2018-04-22T21:59:50.957Z,40.48
2018-04-22T22:02:19.338Z,39.86
2018-04-22T22:04:47.836Z,40.24
2018-04-22T22:07:16.198Z,39.94
2018-04-22T22:09:44.462Z,40.52
2018-04-22T22:12:12.870Z,40.56
2018-04-22T22:14:41.042Z,40.95
2018-04-22T22:17:09.506Z,40.90
2018-04-22T22:19:37.721Z,40.94
2018-04-22T22:22:06.274Z,41.24
2018-04-22T22:24:34.956Z,40.93
2018-04-22T22:27:03.600Z,41.13
2018-04-22T22:29:31.798Z,44.17
2018-04-22T22:32:00.287Z,41.65
2018-04-22T22:34:28.683Z,41.67
2018-04-22T22:36:57.038Z,42.13
2018-04-22T22:39:25.754Z,41.49
2018-04-22T22:41:54.237Z,41.64
2018-04-22T22:44:22.890Z,43.42
2018-04-22T22:46:51.220Z,42.64
2018-04-22T22:49:19.883Z,42.67
2018-04-22T22:51:48.223Z,42.97
2018-04-22T22:54:16.532Z,42.43
2018-04-22T22:56:44.986Z,42.47
2018-04-22T22:59:13.568Z,42.46
2018-04-22T23:01:41.967Z,45.60
2018-04-22T23:04:10.323Z,46.78
2018-04-22T23:06:38.630Z,44.82
2018-04-22T23:09:06.968Z,46.91
2018-04-22T23:11:35.442Z,44.87
2018-04-22T23:14:03.958Z,44.11
2018-04-22T23:16:32.417Z,43.12
2018-04-22T23:19:01.103Z,42.65
2018-04-22T23:21:29.389Z,42.50
2018-04-22T23:23:57.884Z,42.98
2018-04-22T23:26:26.348Z,43.29
2018-04-22T23:28:54.846Z,43.09
2018-04-22T23:31:23.298Z,44.35
2018-04-22T23:33:51.679Z,43.94
2018-04-22T23:36:19.969Z,44.09
2018-04-22T23:38:48.225Z,43.32
2018-04-22T23:41:16.734Z,46.53
2018-04-22T23:43:45.305Z,44.78
2018-04-22T23:46:13.553Z,44.16
2018-04-22T23:48:41.829Z,44.16
2018-04-22T23:51:10.429Z,44.81
2018-04-22T23:53:38.509Z,44.52
2018-04-22T23:56:06.837Z,43.78
2018-04-22T23:58:35.269Z,44.45
